LNG Aquarius — V7BW6 — position and weather

sailwx.info

Track history (hours):
 
Tides and Currents Weather Stations Pressure Air Temp Water Temp Dewpoint Dewpoint Depression Visibility Wind Speed Wind Dir Waves Ship Positions

LNG Aquarius

Last reported at 2017-Aug-11 11:23 UTC. Time now 2017-Aug-18 22:09 UTC.
Position S 33°12' E 030°34'.

Type: Tanker. MMSI: 538001385.

Date/timePositionNaut miles runAvg speedWind from/ knotsBaromVisibWave heightAir tempDewpointWater temp
2017-Aug-11 11:23S 33°12' E 030°34'411.6
2017-Aug-11 11:00S 33°10' E 030°39'611.8
2017-Aug-11 10:30S 33°08' E 030°45'612.2
2017-Aug-11 10:00S 33°05' E 030°52'612.3
2017-Aug-11 09:30S 33°03' E 030°58'612.5
2017-Aug-11 09:00S 32°60' E 031°05'612.8
2017-Aug-11 08:30S 32°57' E 031°12'713.4
2017-Aug-11 08:00S 32°54' E 031°19'1112.8
2017-Aug-11 07:07S 32°49' E 031°31'212.4
2017-Aug-11 06:59S 32°48' E 031°33'612.2
2017-Aug-11 06:30S 32°46' E 031°39'611.7
2017-Aug-11 06:00S 32°43' E 031°46'611.5
2017-Aug-11 05:30S 32°41' E 031°52'6512.6
2017-Aug-11 00:20S 32°13' E 033°02'4813.1
2017-Aug-10 20:40S 31°52' E 033°53'  
Track history (hours):
 
Tides and Currents Weather Stations Pressure Air Temp Water Temp Dewpoint Dewpoint Depression Visibility Wind Speed Wind Dir Waves Ship Positions

LNG Aquarius

Last reported at 2017-Aug-11 11:23 UTC. Time now 2017-Aug-18 22:09 UTC.
Position S 33°12' E 030°34'.

Type: Tanker. MMSI: 538001385.

Date/timePositionNaut miles runAvg speedWind from/ knotsBaromVisibWave heightAir tempDewpointWater temp
2017-Aug-11 11:23S 33°12' E 030°34'411.6
2017-Aug-11 11:00S 33°10' E 030°39'611.8
2017-Aug-11 10:30S 33°08' E 030°45'612.2
2017-Aug-11 10:00S 33°05' E 030°52'612.3
2017-Aug-11 09:30S 33°03' E 030°58'612.5
2017-Aug-11 09:00S 32°60' E 031°05'612.8
2017-Aug-11 08:30S 32°57' E 031°12'713.4
2017-Aug-11 08:00S 32°54' E 031°19'1112.8
2017-Aug-11 07:07S 32°49' E 031°31'212.4
2017-Aug-11 06:59S 32°48' E 031°33'612.2
2017-Aug-11 06:30S 32°46' E 031°39'611.7
2017-Aug-11 06:00S 32°43' E 031°46'611.5
2017-Aug-11 05:30S 32°41' E 031°52'6512.6
2017-Aug-11 00:20S 32°13' E 033°02'4813.1
2017-Aug-10 20:40S 31°52' E 033°53'  

Dump ship's entire track history